»·PEaware :: N8440M KSNA-KSNA

N8440M :: KSNA-KSNA

FLIGHT INFORMATION

Flight Status: Arrived
Operator: Privately registered:
United States
More flights under this callsign
Pilot: Jason V. (22858)
Aircraft: CESSNA 172 SKYHAWK
(C172)
More flights by this aircraft type
Origin: KSNA John Wayne-Orange Co
United States
Destination: KSNA John Wayne-Orange Co
United States
More flights between these airports :: More routes between these airports
Route: SLI
File this flight plan on PilotEdge
Remarks: I-1 Test
Altitude:
(Current/Filed)
3,000ft
Speed:
(Current/Filed)
120kts
Departed: 12-Jan-19 07:07 PM
Arrived: 12-Jan-19 07:35 PM
Distance/Time
Traveled:
0nm/0:28
Distance/Time
To Go:
Arrived

Flight Plot

Page will automatically refresh every two minutes.


Map Options




Map Legend


Flown Route
Filed Route
Departure Airport
Arrival Airport
Navaid (VOR, NDB)
Fix

Horizontal Profiles

Position Reports

Time Latitude Longitude Heading Altitude Ground
Speed
12-Jan-19 18:55 33.670456 -117.868760 41 60ft 0kts
12-Jan-19 18:56 33.670457 -117.868760 41 60ft 0kts
12-Jan-19 18:57 33.670457 -117.868760 41 60ft 0kts
12-Jan-19 18:58 33.670457 -117.868760 41 60ft 0kts
12-Jan-19 18:59 33.670457 -117.868760 41 60ft 0kts
12-Jan-19 19:00 33.671083 -117.868730 359 60ft 6kts
12-Jan-19 19:01 33.672846 -117.867575 43 60ft 7kts
12-Jan-19 19:02 33.673876 -117.867177 358 60ft 5kts
12-Jan-19 19:03 33.676683 -117.865447 28 60ft 14kts
12-Jan-19 19:04 33.679486 -117.863663 27 60ft 5kts
12-Jan-19 19:05 33.680004 -117.863702 293 60ft 5kts
12-Jan-19 19:06 33.675508 -117.867179 207 60ft 66kts
12-Jan-19 19:08 33.659152 -117.886368 236 974ft 85kts
12-Jan-19 19:09 33.646248 -117.910229 234 2012ft 83kts
12-Jan-19 19:10 33.629709 -117.931247 219 2911ft 91kts
12-Jan-19 19:11 33.607497 -117.957726 231 3021ft 123kts
12-Jan-19 19:12 33.585423 -117.988675 237 3049ft 122kts
12-Jan-19 19:13 33.602689 -118.009025 18 3087ft 110kts
12-Jan-19 19:14 33.631478 -117.992506 27 3070ft 115kts
12-Jan-19 19:15 33.660107 -117.974876 29 3018ft 115kts
12-Jan-19 19:16 33.688811 -117.957849 25 2971ft 115kts
12-Jan-19 19:17 33.717164 -117.939792 32 2920ft 115kts
12-Jan-19 19:18 33.743155 -117.917119 35 2881ft 115kts
12-Jan-19 19:19 33.768489 -117.894181 37 2973ft 114kts
12-Jan-19 19:20 33.793740 -117.870973 33 3090ft 114kts
12-Jan-19 19:21 33.820460 -117.850007 33 3071ft 115kts
12-Jan-19 19:22 33.847065 -117.829209 32 3058ft 114kts
12-Jan-19 19:23 33.873714 -117.808267 34 3037ft 114kts
12-Jan-19 19:23 33.895427 -117.790172 33 3017ft 114kts
12-Jan-19 19:25 33.917771 -117.759326 115 3038ft 110kts
12-Jan-19 19:26 33.888145 -117.757913 188 2994ft 114kts
12-Jan-19 19:27 33.856677 -117.762192 184 2979ft 114kts
12-Jan-19 19:28 33.827534 -117.776316 204 2956ft 114kts
12-Jan-19 19:29 33.801483 -117.789206 213 2916ft 94kts
12-Jan-19 19:30 33.778863 -117.806186 205 2468ft 96kts
12-Jan-19 19:30 33.758886 -117.817858 204 1877ft 95kts
12-Jan-19 19:31 33.735070 -117.831685 211 1311ft 94kts
12-Jan-19 19:32 33.711951 -117.846566 203 724ft 94kts
12-Jan-19 19:33 33.688831 -117.860609 206 284ft 93kts
12-Jan-19 19:34 33.673296 -117.870294 209 60ft 28kts
12-Jan-19 19:35 33.669267 -117.871758 128 60ft 0kts
12-Jan-19 19:36 33.669140 -117.871555 121 60ft 6kts
12-Jan-19 19:37 33.670058 -117.869985 42 60ft 3kts
12-Jan-19 19:38 33.671396 -117.868396 81 60ft 4kts
12-Jan-19 19:39 33.671428 -117.867583 95 60ft 0kts
12-Jan-19 19:40 33.671418 -117.867471 96 60ft 0kts
12-Jan-19 19:41 33.671408 -117.867360 96 60ft 0kts
12-Jan-19 19:42 33.671397 -117.867248 96 60ft 0kts
12-Jan-19 19:43 33.671394 -117.867214 94 60ft 0kts
12-Jan-19 19:44 33.671394 -117.867214 94 60ft 0kts

Navigation Log

Ident Type
Flight plan parsing failed, navigation log unavailable